sensor_id;sensor_type;location;lat;lon;timestamp;pressure;altitude;pressure_sealevel;temperature;humidity
9225;BME280;4647;48.072;11.616;2023-05-11T00:01:08;95082.19;;;8.97;85.95
9225;BME280;4647;48.072;11.616;2023-05-11T00:03:39;95081.72;;;9.06;85.54
9225;BME280;4647;48.072;11.616;2023-05-11T00:06:09;95076.41;;;8.95;85.49
9225;BME280;4647;48.072;11.616;2023-05-11T00:08:37;95070.28;;;8.91;85.34
9225;BME280;4647;48.072;11.616;2023-05-11T00:11:08;95064.16;;;8.87;85.57
9225;BME280;4647;48.072;11.616;2023-05-11T00:13:37;95045.06;;;8.71;86.03
9225;BME280;4647;48.072;11.616;2023-05-11T00:16:05;95069.53;;;8.90;85.41
9225;BME280;4647;48.072;11.616;2023-05-11T00:18:34;95065.34;;;8.86;85.68
9225;BME280;4647;48.072;11.616;2023-05-11T00:21:05;95049.66;;;8.74;85.79
9225;BME280;4647;48.072;11.616;2023-05-11T00:23:33;95061.16;;;8.81;85.67
9225;BME280;4647;48.072;11.616;2023-05-11T00:26:02;95059.97;;;8.82;85.67
9225;BME280;4647;48.072;11.616;2023-05-11T00:28:31;95060.34;;;8.84;85.50
9225;BME280;4647;48.072;11.616;2023-05-11T00:30:59;95064.16;;;8.87;85.45
9225;BME280;4647;48.072;11.616;2023-05-11T00:33:27;95062.69;;;8.82;85.60
9225;BME280;4647;48.072;11.616;2023-05-11T00:35:56;95025.78;;;8.69;85.67
9225;BME280;4647;48.072;11.616;2023-05-11T00:38:27;95057.19;;;8.89;85.43
9225;BME280;4647;48.072;11.616;2023-05-11T00:40:57;95061.91;;;8.82;85.69
9225;BME280;4647;48.072;11.616;2023-05-11T00:43:25;95055.66;;;8.88;85.40
9225;BME280;4647;48.072;11.616;2023-05-11T00:45:54;95057.28;;;8.82;85.72
9225;BME280;4647;48.072;11.616;2023-05-11T00:48:22;95049.59;;;8.81;85.30
9225;BME280;4647;48.072;11.616;2023-05-11T00:50:51;95056.78;;;8.91;85.57
9225;BME280;4647;48.072;11.616;2023-05-11T00:53:20;95047.91;;;8.90;85.57
9225;BME280;4647;48.072;11.616;2023-05-11T00:55:51;95051.47;;;8.84;85.60
9225;BME280;4647;48.072;11.616;2023-05-11T00:58:22;95048.97;;;8.66;86.59
9225;BME280;4647;48.072;11.616;2023-05-11T01:00:50;95050.72;;;8.83;85.99
9225;BME280;4647;48.072;11.616;2023-05-11T01:03:19;95047.97;;;8.87;86.00
9225;BME280;4647;48.072;11.616;2023-05-11T01:05:52;95051.34;;;8.95;85.54
9225;BME280;4647;48.072;11.616;2023-05-11T01:08:31;95055.72;;;8.85;85.84
9225;BME280;4647;48.072;11.616;2023-05-11T01:11:09;95049.84;;;8.90;85.71
9225;BME280;4647;48.072;11.616;2023-05-11T01:13:42;95048.31;;;8.89;85.68
9225;BME280;4647;48.072;11.616;2023-05-11T01:16:16;95044.03;;;8.91;85.53
9225;BME280;4647;48.072;11.616;2023-05-11T01:18:57;95034.09;;;8.85;85.75
9225;BME280;4647;48.072;11.616;2023-05-11T01:21:29;95039.50;;;8.85;85.97
9225;BME280;4647;48.072;11.616;2023-05-11T01:24:11;95035.25;;;8.84;86.06
9225;BME280;4647;48.072;11.616;2023-05-11T01:27:11;95045.16;;;8.94;85.75
9225;BME280;4647;48.072;11.616;2023-05-11T01:29:52;95042.88;;;8.92;85.30
9225;BME280;4647;48.072;11.616;2023-05-11T01:32:31;95040.25;;;8.85;85.68
9225;BME280;4647;48.072;11.616;2023-05-11T01:35:05;95040.31;;;8.82;85.79
9225;BME280;4647;48.072;11.616;2023-05-11T01:37:35;95039.13;;;8.83;85.73
9225;BME280;4647;48.072;11.616;2023-05-11T01:40:11;95038.06;;;8.77;85.76
9225;BME280;4647;48.072;11.616;2023-05-11T01:42:44;95038.78;;;8.81;85.65
9225;BME280;4647;48.072;11.616;2023-05-11T01:45:15;95044.25;;;8.74;85.80
9225;BME280;4647;48.072;11.616;2023-05-11T01:47:49;95039.22;;;8.76;85.79
9225;BME280;4647;48.072;11.616;2023-05-11T01:50:18;95046.47;;;8.82;85.69
9225;BME280;4647;48.072;11.616;2023-05-11T01:52:49;95040.75;;;8.77;85.85
9225;BME280;4647;48.072;11.616;2023-05-11T01:55:21;95047.34;;;8.76;86.17
9225;BME280;4647;48.072;11.616;2023-05-11T01:57:52;95034.28;;;8.67;85.87
9225;BME280;4647;48.072;11.616;2023-05-11T02:00:21;95034.34;;;8.64;86.18
9225;BME280;4647;48.072;11.616;2023-05-11T02:02:53;95031.59;;;8.67;85.99
9225;BME280;4647;48.072;11.616;2023-05-11T02:05:24;95000.59;;;8.45;86.25
9225;BME280;4647;48.072;11.616;2023-05-11T02:07:54;95049.72;;;8.67;86.08
9225;BME280;4647;48.072;11.616;2023-05-11T02:10:26;95031.72;;;8.56;86.45
9225;BME280;4647;48.072;11.616;2023-05-11T02:12:57;95035.16;;;8.60;86.33
9225;BME280;4647;48.072;11.616;2023-05-11T02:15:27;95035.78;;;8.72;85.86
9225;BME280;4647;48.072;11.616;2023-05-11T02:17:58;95033.84;;;8.72;85.69
9225;BME280;4647;48.072;11.616;2023-05-11T02:20:27;95031.91;;;8.73;85.64
9225;BME280;4647;48.072;11.616;2023-05-11T02:22:57;95037.75;;;8.68;85.30
9225;BME280;4647;48.072;11.616;2023-05-11T02:25:25;95036.63;;;8.65;85.78
9225;BME280;4647;48.072;11.616;2023-05-11T02:27:56;95031.13;;;8.72;85.69
9225;BME280;4647;48.072;11.616;2023-05-11T02:30:25;95027.69;;;8.72;85.75
9225;BME280;4647;48.072;11.616;2023-05-11T02:32:58;95033.16;;;8.65;85.75
9225;BME280;4647;48.072;11.616;2023-05-11T02:35:32;95034.34;;;8.64;85.66
9225;BME280;4647;48.072;11.616;2023-05-11T02:38:04;95030.81;;;8.67;85.75
9225;BME280;4647;48.072;11.616;2023-05-11T02:40:39;95029.66;;;8.68;85.38
9225;BME280;4647;48.072;11.616;2023-05-11T02:43:12;95028.22;;;8.59;85.75
9225;BME280;4647;48.072;11.616;2023-05-11T02:45:42;95032.88;;;8.55;85.98
9225;BME280;4647;48.072;11.616;2023-05-11T02:48:20;95030.59;;;8.50;86.25
9225;BME280;4647;48.072;11.616;2023-05-11T02:50:50;95022.94;;;8.45;85.91
9225;BME280;4647;48.072;11.616;2023-05-11T02:53:24;95015.22;;;8.47;85.97
9225;BME280;4647;48.072;11.616;2023-05-11T02:55:57;95029.53;;;8.44;86.12
9225;BME280;4647;48.072;11.616;2023-05-11T02:58:26;95029.25;;;8.35;86.44
9225;BME280;4647;48.072;11.616;2023-05-11T03:00:55;95024.88;;;8.45;86.26
9225;BME280;4647;48.072;11.616;2023-05-11T03:03:26;95026.09;;;8.40;86.37
9225;BME280;4647;48.072;11.616;2023-05-11T03:05:54;95028.34;;;8.45;86.10
9225;BME280;4647;48.072;11.616;2023-05-11T03:08:23;95016.47;;;8.39;86.42
9225;BME280;4647;48.072;11.616;2023-05-11T03:10:53;95016.09;;;8.37;85.91
9225;BME280;4647;48.072;11.616;2023-05-11T03:13:23;95011.50;;;8.34;85.93
9225;BME280;4647;48.072;11.616;2023-05-11T03:15:52;95024.19;;;8.37;86.07
9225;BME280;4647;48.072;11.616;2023-05-11T03:18:22;95021.88;;;8.39;86.14
9225;BME280;4647;48.072;11.616;2023-05-11T03:20:53;95012.28;;;8.35;85.75
9225;BME280;4647;48.072;11.616;2023-05-11T03:23:23;95020.34;;;8.38;85.91
9225;BME280;4647;48.072;11.616;2023-05-11T03:25:52;95015.44;;;8.22;86.22
9225;BME280;4647;48.072;11.616;2023-05-11T03:28:21;95013.81;;;8.32;85.94
9225;BME280;4647;48.072;11.616;2023-05-11T03:30:52;95007.38;;;8.19;86.08
9225;BME280;4647;48.072;11.616;2023-05-11T03:33:21;95006.13;;;8.27;85.68
9225;BME280;4647;48.072;11.616;2023-05-11T03:35:53;95015.75;;;8.35;85.62
9225;BME280;4647;48.072;11.616;2023-05-11T03:38:22;95009.22;;;8.29;85.95
9225;BME280;4647;48.072;11.616;2023-05-11T03:40:52;94995.34;;;8.27;85.62
9225;BME280;4647;48.072;11.616;2023-05-11T03:43:22;95005.78;;;8.25;86.02
9225;BME280;4647;48.072;11.616;2023-05-11T03:45:53;94998.88;;;8.20;86.05
9225;BME280;4647;48.072;11.616;2023-05-11T03:48:24;94985.56;;;8.02;85.43
9225;BME280;4647;48.072;11.616;2023-05-11T03:50:55;94989.75;;;8.11;85.56
9225;BME280;4647;48.072;11.616;2023-05-11T03:53:24;94981.69;;;8.07;85.68
9225;BME280;4647;48.072;11.616;2023-05-11T03:55:52;94996.16;;;8.24;85.15
9225;BME280;4647;48.072;11.616;2023-05-11T03:58:21;94995.47;;;8.16;85.56
9225;BME280;4647;48.072;11.616;2023-05-11T04:00:50;94987.41;;;8.13;85.52
9225;BME280;4647;48.072;11.616;2023-05-11T04:03:19;94989.34;;;8.12;85.35
9225;BME280;4647;48.072;11.616;2023-05-11T04:05:48;94994.78;;;8.09;85.82
9225;BME280;4647;48.072;11.616;2023-05-11T04:08:19;94993.25;;;8.08;85.56
9225;BME280;4647;48.072;11.616;2023-05-11T04:10:47;94994.81;;;8.05;86.02
9225;BME280;4647;48.072;11.616;2023-05-11T04:13:16;94989.78;;;8.04;85.81
9225;BME280;4647;48.072;11.616;2023-05-11T04:15:44;94987.03;;;8.11;85.67
9225;BME280;4647;48.072;11.616;2023-05-11T04:18:13;94967.91;;;7.94;85.49
9225;BME280;4647;48.072;11.616;2023-05-11T04:20:42;94979.44;;;7.98;85.81
9225;BME280;4647;48.072;11.616;2023-05-11T04:23:10;94987.94;;;7.97;86.01
9225;BME280;4647;48.072;11.616;2023-05-11T04:25:41;94988.31;;;7.95;86.17
9225;BME280;4647;48.072;11.616;2023-05-11T04:28:10;94989.84;;;7.96;85.94
9225;BME280;4647;48.072;11.616;2023-05-11T04:30:38;94998.63;;;8.08;85.99
9225;BME280;4647;48.072;11.616;2023-05-11T04:33:06;94995.56;;;8.06;85.86
9225;BME280;4647;48.072;11.616;2023-05-11T04:35:38;95001.81;;;7.95;85.96
9225;BME280;4647;48.072;11.616;2023-05-11T04:38:06;94995.66;;;7.95;86.00
9225;BME280;4647;48.072;11.616;2023-05-11T04:40:35;94994.09;;;7.97;85.88
9225;BME280;4647;48.072;11.616;2023-05-11T04:43:06;94999.16;;;7.92;86.25
9225;BME280;4647;48.072;11.616;2023-05-11T04:45:34;94993.41;;;7.90;86.02
9225;BME280;4647;48.072;11.616;2023-05-11T04:48:04;94995.63;;;7.98;85.77
9225;BME280;4647;48.072;11.616;2023-05-11T04:50:32;94999.91;;;7.92;85.84
9225;BME280;4647;48.072;11.616;2023-05-11T04:53:01;95000.00;;;7.85;86.12
9225;BME280;4647;48.072;11.616;2023-05-11T04:55:29;95008.31;;;8.01;85.82
9225;BME280;4647;48.072;11.616;2023-05-11T04:57:58;94998.69;;;8.00;85.50
9225;BME280;4647;48.072;11.616;2023-05-11T05:00:29;95005.66;;;7.98;85.64
9225;BME280;4647;48.072;11.616;2023-05-11T05:02:57;95000.34;;;7.87;85.92
9225;BME280;4647;48.072;11.616;2023-05-11T05:05:26;95007.22;;;7.95;85.77
9225;BME280;4647;48.072;11.616;2023-05-11T05:07:54;95010.59;;;8.03;85.51
9225;BME280;4647;48.072;11.616;2023-05-11T05:10:23;95007.78;;;8.17;85.16
9225;BME280;4647;48.072;11.616;2023-05-11T05:12:51;95012.00;;;8.18;85.16
9225;BME280;4647;48.072;11.616;2023-05-11T05:15:20;94996.31;;;8.10;84.89
9225;BME280;4647;48.072;11.616;2023-05-11T05:17:51;95010.53;;;8.14;84.78
9225;BME280;4647;48.072;11.616;2023-05-11T05:20:19;95014.31;;;8.20;84.80
9225;BME280;4647;48.072;11.616;2023-05-11T05:22:48;95009.63;;;8.24;84.66
9225;BME280;4647;48.072;11.616;2023-05-11T05:25:17;95018.19;;;8.19;84.81
9225;BME280;4647;48.072;11.616;2023-05-11T05:27:45;95019.72;;;8.20;85.09
9225;BME280;4647;48.072;11.616;2023-05-11T05:30:14;95016.75;;;8.04;85.57
9225;BME280;4647;48.072;11.616;2023-05-11T05:32:42;95009.78;;;8.10;84.88
9225;BME280;4647;48.072;11.616;2023-05-11T05:35:13;95017.00;;;8.20;84.70
9225;BME280;4647;48.072;11.616;2023-05-11T05:37:42;95023.50;;;8.26;84.82
9225;BME280;4647;48.072;11.616;2023-05-11T05:40:11;95023.94;;;8.21;84.68
9225;BME280;4647;48.072;11.616;2023-05-11T05:42:39;95025.50;;;8.18;84.96
9225;BME280;4647;48.072;11.616;2023-05-11T05:45:09;95020.03;;;8.25;84.92
9225;BME280;4647;48.072;11.616;2023-05-11T05:47:37;95018.09;;;8.29;84.66
9225;BME280;4647;48.072;11.616;2023-05-11T05:50:07;95025.44;;;8.25;84.71
9225;BME280;4647;48.072;11.616;2023-05-11T05:52:38;95023.56;;;8.19;84.01
9225;BME280;4647;48.072;11.616;2023-05-11T05:55:07;95022.78;;;8.22;84.30
9225;BME280;4647;48.072;11.616;2023-05-11T05:57:36;95020.47;;;8.20;84.23
9225;BME280;4647;48.072;11.616;2023-05-11T06:00:05;95028.50;;;8.27;84.14
9225;BME280;4647;48.072;11.616;2023-05-11T06:02:35;95025.78;;;8.31;84.09
9225;BME280;4647;48.072;11.616;2023-05-11T06:05:04;95029.66;;;8.30;84.25
9225;BME280;4647;48.072;11.616;2023-05-11T06:07:33;95019.63;;;8.30;83.96
9225;BME280;4647;48.072;11.616;2023-05-11T06:10:06;95017.38;;;8.22;83.87
9225;BME280;4647;48.072;11.616;2023-05-11T06:12:34;95022.19;;;8.45;83.57
9225;BME280;4647;48.072;11.616;2023-05-11T06:15:03;95028.44;;;8.38;83.73
9225;BME280;4647;48.072;11.616;2023-05-11T06:17:32;95019.06;;;8.09;84.15
9225;BME280;4647;48.072;11.616;2023-05-11T06:20:00;95030.44;;;8.27;83.52
9225;BME280;4647;48.072;11.616;2023-05-11T06:22:30;95031.63;;;8.22;83.68
9225;BME280;4647;48.072;11.616;2023-05-11T06:24:59;95028.91;;;8.26;83.93
9225;BME280;4647;48.072;11.616;2023-05-11T06:27:30;95017.00;;;8.20;83.93
9225;BME280;4647;48.072;11.616;2023-05-11T06:29:58;95033.88;;;8.31;83.48
9225;BME280;4647;48.072;11.616;2023-05-11T06:32:27;95034.22;;;8.37;83.49
9225;BME280;4647;48.072;11.616;2023-05-11T06:34:58;95033.44;;;8.40;83.22
9225;BME280;4647;48.072;11.616;2023-05-11T06:37:28;95033.69;;;8.52;82.82
9225;BME280;4647;48.072;11.616;2023-05-11T06:39:57;95025.88;;;8.61;82.56
9225;BME280;4647;48.072;11.616;2023-05-11T06:42:26;95033.16;;;8.65;82.49
9225;BME280;4647;48.072;11.616;2023-05-11T06:44:57;95034.28;;;8.67;82.57
9225;BME280;4647;48.072;11.616;2023-05-11T06:47:25;95021.59;;;8.64;82.48
9225;BME280;4647;48.072;11.616;2023-05-11T06:49:54;95033.34;;;8.84;81.75
9225;BME280;4647;48.072;11.616;2023-05-11T06:52:22;95026.44;;;8.80;81.62
9225;BME280;4647;48.072;11.616;2023-05-11T06:54:51;95028.25;;;8.90;81.84
9225;BME280;4647;48.072;11.616;2023-05-11T06:57:20;95021.09;;;8.76;81.85
9225;BME280;4647;48.072;11.616;2023-05-11T06:59:49;95029.78;;;8.91;81.56
9225;BME280;4647;48.072;11.616;2023-05-11T07:02:20;95032.25;;;8.75;82.58
9225;BME280;4647;48.072;11.616;2023-05-11T07:04:48;95022.72;;;8.67;82.54
9225;BME280;4647;48.072;11.616;2023-05-11T07:07:17;95014.25;;;8.65;82.20
9225;BME280;4647;48.072;11.616;2023-05-11T07:09:47;95033.41;;;8.77;82.45
9225;BME280;4647;48.072;11.616;2023-05-11T07:12:15;95007.84;;;8.51;82.43
9225;BME280;4647;48.072;11.616;2023-05-11T07:14:44;95025.47;;;8.63;83.08
9225;BME280;4647;48.072;11.616;2023-05-11T07:17:12;95036.28;;;8.63;82.70
9225;BME280;4647;48.072;11.616;2023-05-11T07:19:43;95038.00;;;8.80;82.51
9225;BME280;4647;48.072;11.616;2023-05-11T07:22:12;95036.53;;;8.72;82.19
9225;BME280;4647;48.072;11.616;2023-05-11T07:24:40;95021.59;;;8.64;82.22
9225;BME280;4647;48.072;11.616;2023-05-11T07:27:09;95036.00;;;8.88;82.56
9225;BME280;4647;48.072;11.616;2023-05-11T07:29:37;95024.72;;;8.93;82.56
9225;BME280;4647;48.072;11.616;2023-05-11T07:32:06;95025.09;;;8.95;81.79
9225;BME280;4647;48.072;11.616;2023-05-11T07:34:35;95031.28;;;9.26;81.41
9225;BME280;4647;48.072;11.616;2023-05-11T07:37:08;95014.78;;;9.17;80.97
9225;BME280;4647;48.072;11.616;2023-05-11T07:39:36;95032.19;;;9.43;80.50
9225;BME280;4647;48.072;11.616;2023-05-11T07:42:05;95037.94;;;9.45;80.64
9225;BME280;4647;48.072;11.616;2023-05-11T07:44:34;95033.09;;;9.60;79.68
9225;BME280;4647;48.072;11.616;2023-05-11T07:47:03;95030.09;;;9.81;78.93
9225;BME280;4647;48.072;11.616;2023-05-11T07:49:31;95038.91;;;9.85;78.83
9225;BME280;4647;48.072;11.616;2023-05-11T07:52:00;95038.63;;;10.03;78.70
9225;BME280;4647;48.072;11.616;2023-05-11T07:54:30;95029.50;;;10.16;77.75
9225;BME280;4647;48.072;11.616;2023-05-11T07:57:00;95038.38;;;10.17;77.76
9225;BME280;4647;48.072;11.616;2023-05-11T07:59:28;95036.31;;;10.28;77.03
9225;BME280;4647;48.072;11.616;2023-05-11T08:01:56;95031.44;;;10.16;77.85
9225;BME280;4647;48.072;11.616;2023-05-11T08:04:26;95029.19;;;9.88;78.38
9225;BME280;4647;48.072;11.616;2023-05-11T08:06:55;95034.53;;;10.18;77.80
9225;BME280;4647;48.072;11.616;2023-05-11T08:09:23;95039.63;;;10.36;76.76
9225;BME280;4647;48.072;11.616;2023-05-11T08:11:55;95035.41;;;10.35;77.19
9225;BME280;4647;48.072;11.616;2023-05-11T08:14:26;95003.75;;;10.32;76.39
9225;BME280;4647;48.072;11.616;2023-05-11T08:16:54;95041.03;;;10.67;75.77
9225;BME280;4647;48.072;11.616;2023-05-11T08:19:23;95034.75;;;10.51;76.60
9225;BME280;4647;48.072;11.616;2023-05-11T08:21:51;95030.22;;;10.44;76.63
9225;BME280;4647;48.072;11.616;2023-05-11T08:24:20;95022.09;;;10.44;76.60
9225;BME280;4647;48.072;11.616;2023-05-11T08:26:48;95041.03;;;10.67;76.40
9225;BME280;4647;48.072;11.616;2023-05-11T08:29:20;95018.63;;;10.83;74.60
9225;BME280;4647;48.072;11.616;2023-05-11T08:31:51;95027.88;;;10.86;74.83
9225;BME280;4647;48.072;11.616;2023-05-11T08:34:20;95016.91;;;10.73;74.81
9225;BME280;4647;48.072;11.616;2023-05-11T08:36:48;95032.00;;;10.74;75.27
9225;BME280;4647;48.072;11.616;2023-05-11T08:39:19;95033.78;;;10.61;76.79
9225;BME280;4647;48.072;11.616;2023-05-11T08:41:48;95026.91;;;10.76;75.78
9225;BME280;4647;48.072;11.616;2023-05-11T08:44:20;94995.09;;;10.80;75.35
9225;BME280;4647;48.072;11.616;2023-05-11T08:46:52;95029.41;;;11.06;74.99
9225;BME280;4647;48.072;11.616;2023-05-11T08:49:20;95031.41;;;11.22;75.06
9225;BME280;4647;48.072;11.616;2023-05-11T08:51:49;95030.31;;;11.00;75.31
9225;BME280;4647;48.072;11.616;2023-05-11T08:54:18;95027.00;;;10.92;76.40
9225;BME280;4647;48.072;11.616;2023-05-11T08:56:50;95013.38;;;10.96;75.62
9225;BME280;4647;48.072;11.616;2023-05-11T08:59:22;95021.25;;;11.26;75.39
9225;BME280;4647;48.072;11.616;2023-05-11T09:01:53;95027.25;;;11.54;73.90
9225;BME280;4647;48.072;11.616;2023-05-11T09:04:23;95026.00;;;11.75;73.14
9225;BME280;4647;48.072;11.616;2023-05-11T09:06:53;95020.75;;;11.67;73.75
9225;BME280;4647;48.072;11.616;2023-05-11T09:09:22;95027.53;;;11.76;73.49
9225;BME280;4647;48.072;11.616;2023-05-11T09:11:51;95023.78;;;11.69;73.00
9225;BME280;4647;48.072;11.616;2023-05-11T09:14:23;95026.94;;;11.68;73.17
9225;BME280;4647;48.072;11.616;2023-05-11T09:16:51;95023.84;;;11.86;73.21
9225;BME280;4647;48.072;11.616;2023-05-11T09:19:20;95029.69;;;12.01;73.34
9225;BME280;4647;48.072;11.616;2023-05-11T09:21:51;95032.41;;;12.01;73.18
9225;BME280;4647;48.072;11.616;2023-05-11T09:24:19;95030.22;;;11.76;72.35
9225;BME280;4647;48.072;11.616;2023-05-11T09:26:48;95021.94;;;11.83;73.26
9225;BME280;4647;48.072;11.616;2023-05-11T09:29:19;95007.50;;;11.69;72.99
9225;BME280;4647;48.072;11.616;2023-05-11T09:31:50;95024.81;;;11.76;73.88
9225;BME280;4647;48.072;11.616;2023-05-11T09:34:20;95023.97;;;11.79;74.52
9225;BME280;4647;48.072;11.616;2023-05-11T09:36:50;95025.44;;;11.99;72.78
9225;BME280;4647;48.072;11.616;2023-05-11T09:39:27;95024.00;;;11.59;73.76
9225;BME280;4647;48.072;11.616;2023-05-11T09:42:12;95026.91;;;11.52;73.05
9225;BME280;4647;48.072;11.616;2023-05-11T09:44:41;95014.47;;;11.71;72.93
9225;BME280;4647;48.072;11.616;2023-05-11T09:47:15;95019.22;;;11.66;72.27
9225;BME280;4647;48.072;11.616;2023-05-11T09:49:45;95020.59;;;11.91;71.34
9225;BME280;4647;48.072;11.616;2023-05-11T09:52:15;95024.31;;;11.81;71.98
9225;BME280;4647;48.072;11.616;2023-05-11T09:54:46;95009.22;;;11.63;72.38
9225;BME280;4647;48.072;11.616;2023-05-11T09:57:22;95015.28;;;11.51;73.55
9225;BME280;4647;48.072;11.616;2023-05-11T09:59:52;95018.41;;;11.50;74.03
9225;BME280;4647;48.072;11.616;2023-05-11T10:02:24;95024.13;;;11.35;74.62
9225;BME280;4647;48.072;11.616;2023-05-11T10:04:56;95022.16;;;11.20;74.88
9225;BME280;4647;48.072;11.616;2023-05-11T10:07:29;95021.13;;;11.50;74.36
9225;BME280;4647;48.072;11.616;2023-05-11T10:09:59;95018.06;;;11.48;73.45
9225;BME280;4647;48.072;11.616;2023-05-11T10:12:28;95011.88;;;11.47;73.62
9225;BME280;4647;48.072;11.616;2023-05-11T10:15:00;95016.06;;;11.16;74.60
9225;BME280;4647;48.072;11.616;2023-05-11T10:17:32;95014.47;;;11.34;74.03
9225;BME280;4647;48.072;11.616;2023-05-11T10:20:02;95017.81;;;11.42;74.29
9225;BME280;4647;48.072;11.616;2023-05-11T10:22:31;95000.53;;;11.36;75.28
9225;BME280;4647;48.072;11.616;2023-05-11T10:25:00;95022.09;;;11.76;74.32
9225;BME280;4647;48.072;11.616;2023-05-11T10:27:30;94998.25;;;11.67;72.90
9225;BME280;4647;48.072;11.616;2023-05-11T10:30:05;95012.41;;;11.58;73.22
9225;BME280;4647;48.072;11.616;2023-05-11T10:32:37;95011.06;;;11.66;74.04
9225;BME280;4647;48.072;11.616;2023-05-11T10:35:06;95023.25;;;11.58;74.11
9225;BME280;4647;48.072;11.616;2023-05-11T10:37:35;95014.88;;;11.69;73.99
9225;BME280;4647;48.072;11.616;2023-05-11T10:40:05;95008.88;;;11.61;73.37
9225;BME280;4647;48.072;11.616;2023-05-11T10:42:51;95012.56;;;11.87;73.46
9225;BME280;4647;48.072;11.616;2023-05-11T10:45:27;95001.09;;;11.96;72.75
9225;BME280;4647;48.072;11.616;2023-05-11T10:48:30;94995.94;;;11.85;73.72
9225;BME280;4647;48.072;11.616;2023-05-11T10:51:11;95007.53;;;12.18;73.32
9225;BME280;4647;48.072;11.616;2023-05-11T10:53:57;95010.16;;;12.06;72.86
9225;BME280;4647;48.072;11.616;2023-05-11T10:56:43;95009.06;;;12.03;72.50
9225;BME280;4647;48.072;11.616;2023-05-11T11:02:08;95012.97;;;12.02;72.60
9225;BME280;4647;48.072;11.616;2023-05-11T11:04:45;95006.66;;;12.38;71.74
9225;BME280;4647;48.072;11.616;2023-05-11T11:07:15;95012.63;;;12.16;71.80
9225;BME280;4647;48.072;11.616;2023-05-11T11:09:55;95009.56;;;12.14;71.86
9225;BME280;4647;48.072;11.616;2023-05-11T11:12:25;94984.94;;;12.05;72.28
9225;BME280;4647;48.072;11.616;2023-05-11T11:14:58;95011.56;;;12.26;72.34
9225;BME280;4647;48.072;11.616;2023-05-11T11:17:28;95011.53;;;12.59;70.92
9225;BME280;4647;48.072;11.616;2023-05-11T11:20:00;95009.16;;;12.61;70.53
9225;BME280;4647;48.072;11.616;2023-05-11T11:22:45;95003.19;;;12.66;70.57
9225;BME280;4647;48.072;11.616;2023-05-11T11:25:15;95005.78;;;12.70;69.60
9225;BME280;4647;48.072;11.616;2023-05-11T11:28:06;95010.94;;;12.51;70.08
9225;BME280;4647;48.072;11.616;2023-05-11T11:30:35;95000.34;;;12.41;71.07
9225;BME280;4647;48.072;11.616;2023-05-11T11:33:31;94999.72;;;12.20;72.25
9225;BME280;4647;48.072;11.616;2023-05-11T11:36:00;95002.00;;;12.06;72.43
9225;BME280;4647;48.072;11.616;2023-05-11T11:38:29;95008.28;;;12.03;72.25
9225;BME280;4647;48.072;11.616;2023-05-11T11:40:59;94994.13;;;11.95;72.61
9225;BME280;4647;48.072;11.616;2023-05-11T11:43:42;95000.56;;;12.01;72.26
9225;BME280;4647;48.072;11.616;2023-05-11T11:46:25;94991.09;;;12.09;72.38
9225;BME280;4647;48.072;11.616;2023-05-11T11:49:07;95003.72;;;12.16;72.77
9225;BME280;4647;48.072;11.616;2023-05-11T11:51:38;94999.94;;;12.26;72.38
9225;BME280;4647;48.072;11.616;2023-05-11T11:54:07;94984.59;;;12.19;72.83
9225;BME280;4647;48.072;11.616;2023-05-11T11:56:41;95001.31;;;12.34;72.38
9225;BME280;4647;48.072;11.616;2023-05-11T11:59:13;94998.91;;;11.91;73.49
9225;BME280;4647;48.072;11.616;2023-05-11T12:01:43;94988.84;;;11.72;73.90
9225;BME280;4647;48.072;11.616;2023-05-11T12:07:18;95012.09;;;12.05;71.96
9225;BME280;4647;48.072;11.616;2023-05-11T12:09:47;95007.19;;;12.00;72.70
9225;BME280;4647;48.072;11.616;2023-05-11T12:12:17;95001.41;;;11.82;73.67
9225;BME280;4647;48.072;11.616;2023-05-11T12:14:49;94997.38;;;11.90;73.59
9225;BME280;4647;48.072;11.616;2023-05-11T12:17:26;94994.81;;;11.99;73.44
9225;BME280;4647;48.072;11.616;2023-05-11T12:20:11;94981.91;;;12.03;73.02
9225;BME280;4647;48.072;11.616;2023-05-11T12:22:41;94996.41;;;12.13;72.33
9225;BME280;4647;48.072;11.616;2023-05-11T12:25:14;94987.66;;;12.21;72.81
9225;BME280;4647;48.072;11.616;2023-05-11T12:27:49;94993.72;;;12.13;73.34
9225;BME280;4647;48.072;11.616;2023-05-11T12:30:24;94994.34;;;12.33;72.12
9225;BME280;4647;48.072;11.616;2023-05-11T12:32:53;94988.69;;;12.11;72.84
9225;BME280;4647;48.072;11.616;2023-05-11T12:35:22;94989.81;;;11.97;72.00
9225;BME280;4647;48.072;11.616;2023-05-11T12:37:52;94987.38;;;11.87;73.32
9225;BME280;4647;48.072;11.616;2023-05-11T12:40:21;94983.00;;;11.73;73.55
9225;BME280;4647;48.072;11.616;2023-05-11T12:42:50;94967.31;;;11.81;73.47
9225;BME280;4647;48.072;11.616;2023-05-11T12:45:22;94962.94;;;11.87;73.12
9225;BME280;4647;48.072;11.616;2023-05-11T12:47:52;94980.06;;;11.84;73.06
9225;BME280;4647;48.072;11.616;2023-05-11T12:50:22;94988.75;;;11.75;73.95
9225;BME280;4647;48.072;11.616;2023-05-11T12:52:51;94979.53;;;11.73;73.19
9225;BME280;4647;48.072;11.616;2023-05-11T12:55:26;94963.91;;;11.77;72.92
9225;BME280;4647;48.072;11.616;2023-05-11T12:58:06;94972.25;;;11.86;73.86
9225;BME280;4647;48.072;11.616;2023-05-11T13:00:49;94984.94;;;11.73;74.54
9225;BME280;4647;48.072;11.616;2023-05-11T13:03:22;94981.41;;;11.92;73.52
9225;BME280;4647;48.072;11.616;2023-05-11T13:05:50;94949.50;;;11.80;73.38
9225;BME280;4647;48.072;11.616;2023-05-11T13:08:19;94973.09;;;11.83;73.66
9225;BME280;4647;48.072;11.616;2023-05-11T13:10:47;94972.41;;;11.79;74.01
9225;BME280;4647;48.072;11.616;2023-05-11T13:13:34;94964.94;;;11.99;72.74
9225;BME280;4647;48.072;11.616;2023-05-11T13:16:05;94970.13;;;11.93;73.03
9225;BME280;4647;48.072;11.616;2023-05-11T13:18:34;94967.22;;;12.01;72.27
9225;BME280;4647;48.072;11.616;2023-05-11T13:21:05;94963.50;;;11.78;72.12
9225;BME280;4647;48.072;11.616;2023-05-11T13:23:34;94970.88;;;11.94;72.26
9225;BME280;4647;48.072;11.616;2023-05-11T13:26:03;94967.75;;;11.79;73.70
9225;BME280;4647;48.072;11.616;2023-05-11T13:28:32;94968.38;;;11.87;73.94
9225;BME280;4647;48.072;11.616;2023-05-11T13:31:01;94965.19;;;11.72;74.16
9225;BME280;4647;48.072;11.616;2023-05-11T13:33:33;94963.66;;;11.71;75.15
9225;BME280;4647;48.072;11.616;2023-05-11T13:36:01;94966.41;;;11.87;74.74
9225;BME280;4647;48.072;11.616;2023-05-11T13:38:32;94943.81;;;11.58;75.25
9225;BME280;4647;48.072;11.616;2023-05-11T13:41:00;94958.47;;;11.77;74.63
9225;BME280;4647;48.072;11.616;2023-05-11T13:43:31;94960.78;;;11.62;74.59